Карточка аэропорта UAKK

Внимание!
Информация на этой странице в стадии наполнения.
Если вы не увидели какой-то информации, или заметили неточность - пожалуйста сообщите нам!
Спасибо!
Команда RU-STAFF
Название аэропортаКараганда
Название аэропорта (англ.)Karaganda
Превышение1768 ft. (538.9 m.)
Координаты49°40.302', 73°20.118'
Высота перехода10000
Эшелон переходаby ATC
Коды ответчика0630-0637, 7220-7227
Зона ОрВДАстана РПИ (UACN)
Данные METARUAKK 232030Z 22002MPS 200V260 CAVOK 09/04 Q1015 NOSIG RMK QFE715/0953
Проноз погоды (TAF)UAKK 231706Z 2318/2418 18004MPS 9999 SCT040 SCT100 TX22/2409Z TN08/2401Z BECMG 2406/2408 BKN030 BKN100 TEMPO 2406/2412 18009MPS -SHRA BKN020CB BECMG 2412/2414 04005MPS TEMPO 2412/2418 -SHRA BKN020CB
NOTAMshow/hide NOTAM
AWOS   TABLE

Информация о ВПП

ВПП Длина ВПП (м.) Покрытие Курс ВПП Частота ILS
053601Железобетон50109.9
233601Железобетон230111.7

Диспетчерские позиции




Спутниковое изображение